Weather History for Grand Marais Airport, MN

Change the Weather History Date:

Sunday, June 10, 2012

  Actual Average Record
Temperature  
Mean Temperature 66 °F -  
Max Temperature 80 °F 64 °F 80 °F (2012)
Min Temperature 51 °F 44 °F 33 °F (2006)
Growing Degree Days 16 (Base 50)    
Moisture  
Dew Point 55 °F    
Average Humidity 63    
Maximum Humidity 94    
Minimum Humidity 47    
Precipitation  
Precipitation 0.00 in - - ()
Sea Level Pressure  
Sea Level Pressure 29.73 in    
Wind  
Wind Speed 5 mph (SSE)    
Max Wind Speed 15 mph    
Max Gust Speed 24 mph    
Visibility 10 miles    
Events Thunderstorm    
Averages and records for this station are not official NWS values.
T = Trace of Precipitation, MM = Missing Value Source: NWS Daily Summary

Daily Weather History Graph

Daily Weather History Graph

Search for Another Location

Airport:

Trip Planner

Search our weather history database for the weather conditions in past years. The results will help you decide how hot, cold, wet, or windy it might be!

Date:

Astronomy

Jun. 10, 2012 Rise Set
Actual Time 5:02 AM CDT 8:59 PM CDT
Civil Twilight 4:22 AM CDT 9:40 PM CDT
Nautical Twilight 3:26 AM CDT 10:36 PM CDT
Astronomical Twilight 1:57 AM CDT 12:06 AM CDT
Moon 12:28 AM CDT (6/10) 12:18 PM CDT (6/10)
Length of Visible Light 17h 18m
Length of Day
15h 57m
Waning Gibbous, 58% of the Moon is Illuminated
Jun 10
Waning Gibbous
Jun 11
Last Quarter
Jun 19
New
Jun 26
First Quarter
Jul 3
Full

Hourly Weather History & Observations

Time (CDT) Temp. Heat Index Dew Point Humidity Pressure Visibility Wind Dir Wind Speed Gust Speed Precip Events Conditions
12:14 AM 55.4 °F - 51.8 °F 88% 29.76 in 7.0 mi Calm Calm - N/A   Clear
12:33 AM 53.6 °F - 51.8 °F 94% 29.76 in 7.0 mi Calm Calm - N/A   Clear
12:53 AM 53.6 °F - 50.0 °F 88% 29.76 in 5.0 mi Calm Calm - N/A   Clear
1:13 AM 53.6 °F - 51.8 °F 94% 29.76 in 4.0 mi Calm Calm - N/A   Clear
1:34 AM 53.6 °F - 50.0 °F 88% 29.76 in 4.0 mi Calm Calm - N/A   Clear
1:53 AM 53.6 °F - 50.0 °F 88% 29.76 in 4.0 mi Calm Calm - N/A   Clear
2:14 AM 53.6 °F - 50.0 °F 88% 29.76 in 7.0 mi Calm Calm - N/A   Clear
2:33 AM 53.6 °F - 50.0 °F 88% 29.76 in 5.0 mi Calm Calm - N/A   Clear
2:54 AM 55.4 °F - 51.8 °F 88% 29.75 in 10.0 mi ESE 3.5 mph - N/A   Clear
3:13 AM 51.8 °F - 48.2 °F 88% 29.74 in 10.0 mi Calm Calm - N/A   Clear
3:34 AM 57.2 °F - 51.8 °F 82% 29.74 in 10.0 mi East 4.6 mph - N/A   Clear
3:53 AM 55.4 °F - 51.8 °F 88% 29.75 in 10.0 mi ESE 3.5 mph - N/A   Clear
4:13 AM 55.4 °F - 51.8 °F 88% 29.75 in 10.0 mi ESE 3.5 mph - N/A   Clear
4:34 AM 55.4 °F - 51.8 °F 88% 29.76 in 10.0 mi ESE 3.5 mph - N/A   Clear
4:53 AM 59.0 °F - 53.6 °F 82% 29.76 in 10.0 mi ESE 3.5 mph - N/A   Clear
5:13 AM 60.8 °F - 53.6 °F 77% 29.76 in 10.0 mi Calm Calm - N/A   Clear
5:33 AM 59.0 °F - 53.6 °F 82% 29.76 in 10.0 mi SE 3.5 mph - N/A   Clear
5:53 AM 60.8 °F - 53.6 °F 77% 29.76 in 10.0 mi SSE 3.5 mph - N/A   Clear
6:14 AM 62.6 °F - 53.6 °F 72% 29.76 in 10.0 mi Calm Calm - N/A   Clear
6:34 AM 62.6 °F - 53.6 °F 72% 29.77 in 10.0 mi Calm Calm - N/A   Clear
6:53 AM 64.4 °F - 55.4 °F 73% 29.78 in 10.0 mi SSE 3.5 mph - N/A   Clear
7:13 AM 64.4 °F - 55.4 °F 73% 29.78 in 10.0 mi SSE 4.6 mph - N/A   Clear
7:34 AM 66.2 °F - 55.4 °F 68% 29.78 in 10.0 mi SSE 3.5 mph - N/A   Clear
7:53 AM 68.0 °F - 55.4 °F 64% 29.78 in 10.0 mi Calm Calm - N/A   Clear
8:14 AM 69.8 °F - 55.4 °F 60% 29.78 in 10.0 mi South 4.6 mph - N/A   Clear
8:34 AM 71.6 °F - 55.4 °F 57% 29.77 in 10.0 mi South 6.9 mph - N/A   Clear
8:53 AM 69.8 °F - 55.4 °F 60% 29.76 in 10.0 mi South 6.9 mph - N/A   Clear
9:14 AM 69.8 °F - 55.4 °F 60% 29.76 in 10.0 mi South 10.4 mph - N/A   Clear
9:33 AM 69.8 °F - 55.4 °F 60% 29.77 in 10.0 mi South 4.6 mph - N/A   Clear
9:53 AM 69.8 °F - 53.6 °F 56% 29.77 in 10.0 mi South 10.4 mph 20.7 mph N/A   Clear
10:13 AM 71.6 °F - 55.4 °F 57% 29.77 in 10.0 mi South 6.9 mph - N/A   Clear
10:33 AM 71.6 °F - 55.4 °F 57% 29.77 in 10.0 mi SSW 9.2 mph 18.4 mph N/A   Clear
10:54 AM 73.4 °F - 55.4 °F 53% 29.77 in 10.0 mi SSW 9.2 mph - N/A   Clear
11:14 AM 73.4 °F - 57.2 °F 57% 29.78 in 10.0 mi SSW 10.4 mph 17.3 mph N/A   Clear
11:33 AM 75.2 °F - 57.2 °F 53% 29.77 in 10.0 mi South 10.4 mph 18.4 mph N/A   Clear
11:53 AM 75.2 °F - 57.2 °F 53% 29.77 in 10.0 mi South 9.2 mph 18.4 mph N/A   Clear
12:14 PM 75.2 °F - 57.2 °F 53% 29.76 in 10.0 mi South 12.7 mph 16.1 mph N/A   Clear
12:33 PM 75.2 °F - 59.0 °F 57% 29.76 in 10.0 mi South 8.1 mph - N/A   Clear
12:53 PM 77.0 °F - 59.0 °F 54% 29.75 in 10.0 mi South 10.4 mph 17.3 mph N/A   Clear
1:13 PM 77.0 °F - 57.2 °F 50% 29.75 in 10.0 mi SSE 13.8 mph 21.9 mph N/A   Clear
1:33 PM 78.8 °F - 57.2 °F 47% 29.74 in 10.0 mi South 12.7 mph 20.7 mph N/A   Clear
1:54 PM 78.8 °F - 57.2 °F 47% 29.74 in 10.0 mi South 13.8 mph 23.0 mph N/A   Clear
2:13 PM 78.8 °F - 59.0 °F 51% 29.74 in 10.0 mi SSE 9.2 mph 20.7 mph N/A   Clear
2:34 PM 78.8 °F - 59.0 °F 51% 29.74 in 10.0 mi South 10.4 mph 20.7 mph N/A   Clear
2:53 PM 80.6 °F 81.1 °F 59.0 °F 48% 29.73 in 10.0 mi SSE 15.0 mph 21.9 mph N/A   Clear
3:13 PM 78.8 °F - 59.0 °F 51% 29.73 in 10.0 mi SSE 12.7 mph 19.6 mph N/A   Clear
3:34 PM 80.6 °F 81.1 °F 59.0 °F 48% 29.73 in 10.0 mi South 12.7 mph 19.6 mph N/A   Clear
3:53 PM 78.8 °F - 59.0 °F 51% 29.73 in 10.0 mi SSE 9.2 mph - N/A   Scattered Clouds
4:13 PM 78.8 °F - 59.0 °F 51% 29.73 in 10.0 mi South 8.1 mph - N/A   Clear
4:34 PM 78.8 °F - 59.0 °F 51% 29.73 in 10.0 mi South 8.1 mph - N/A   Clear
4:53 PM 78.8 °F - 59.0 °F 51% 29.72 in 10.0 mi South 9.2 mph - N/A   Clear
5:14 PM 78.8 °F - 57.2 °F 47% 29.71 in 10.0 mi SSE 10.4 mph 21.9 mph N/A   Clear
5:33 PM 78.8 °F - 57.2 °F 47% 29.71 in 10.0 mi South 9.2 mph 17.3 mph N/A   Clear
5:53 PM 78.8 °F - 57.2 °F 47% 29.70 in 10.0 mi SSE 10.4 mph 18.4 mph N/A   Clear
6:13 PM 77.0 °F - 57.2 °F 50% 29.69 in 10.0 mi South 10.4 mph 18.4 mph N/A   Clear
6:34 PM 75.2 °F - 55.4 °F 50% 29.69 in 10.0 mi South 9.2 mph 19.6 mph N/A   Clear
6:53 PM 75.2 °F - 55.4 °F 50% 29.68 in 10.0 mi South 9.2 mph - N/A   Clear
7:13 PM 75.2 °F - 55.4 °F 50% 29.67 in 10.0 mi South 11.5 mph 18.4 mph N/A   Clear
7:33 PM 73.4 °F - 55.4 °F 53% 29.67 in 10.0 mi South 8.1 mph - N/A   Clear
7:54 PM 71.6 °F - 55.4 °F 57% 29.67 in 10.0 mi South 9.2 mph - N/A   Clear
8:13 PM 71.6 °F - 55.4 °F 57% 29.68 in 10.0 mi South 9.2 mph - N/A   Clear
8:33 PM 71.6 °F - 55.4 °F 57% 29.67 in 10.0 mi South 10.4 mph - N/A   Scattered Clouds
8:54 PM 73.4 °F - 55.4 °F 53% 29.66 in 10.0 mi South 8.1 mph 17.3 mph N/A   Scattered Clouds
9:13 PM 71.6 °F - 55.4 °F 57% 29.65 in 10.0 mi South 10.4 mph - N/A   Clear
9:33 PM 73.4 °F - 55.4 °F 53% 29.65 in 10.0 mi South 10.4 mph 23.0 mph N/A   Clear
9:54 PM 71.6 °F - 53.6 °F 53% 29.65 in 10.0 mi South 9.2 mph 17.3 mph N/A   Clear
10:13 PM 71.6 °F - 53.6 °F 53% 29.64 in 10.0 mi South 9.2 mph 24.2 mph N/A   Clear
10:33 PM 71.6 °F - 53.6 °F 53% 29.65 in 10.0 mi South 11.5 mph 20.7 mph N/A   Scattered Clouds
10:54 PM 71.6 °F - 53.6 °F 53% 29.67 in 10.0 mi SSE 10.4 mph 19.6 mph N/A   Mostly Cloudy
11:13 PM 69.8 °F - 53.6 °F 56% 29.67 in 10.0 mi South 9.2 mph 19.6 mph N/A   Mostly Cloudy
11:34 PM 69.8 °F - 53.6 °F 56% 29.66 in 10.0 mi South 8.1 mph 16.1 mph N/A   Overcast
11:53 PM 69.8 °F - 53.6 °F 56% 29.66 in 10.0 mi South 9.2 mph 16.1 mph N/A Thunderstorm Scattered Clouds